createdAt,value
2022-08-18T00:02:03.979Z,62.47
2022-08-18T00:04:35.640Z,69.22
2022-08-18T00:07:06.521Z,71.32
2022-08-18T00:09:39.111Z,65.13
2022-08-18T00:12:14.653Z,71.72
2022-08-18T00:14:41.729Z,77.05
2022-08-18T00:17:09.200Z,94.88
2022-08-18T00:19:45.583Z,104.03
2022-08-18T00:22:19.429Z,97.70
2022-08-18T00:24:54.631Z,117.90
2022-08-18T00:27:29.432Z,108.32
2022-08-18T00:30:02.582Z,102.68
2022-08-18T00:32:36.211Z,117.28
2022-08-18T00:35:28.986Z,100.68
2022-08-18T00:37:59.747Z,115.50
2022-08-18T00:40:39.391Z,125.55
2022-08-18T00:43:13.885Z,117.50
2022-08-18T00:45:43.696Z,218.23
2022-08-18T00:48:13.200Z,336.55
2022-08-18T00:51:04.157Z,397.38
2022-08-18T00:53:40.632Z,406.45
2022-08-18T00:56:13.768Z,183.75
2022-08-18T00:58:57.916Z,340.00
2022-08-18T01:01:29.882Z,239.88
2022-08-18T01:04:07.182Z,356.52
2022-08-18T01:06:43.114Z,199.52
2022-08-18T01:09:10.516Z,557.38
2022-08-18T01:11:38.803Z,133.25
2022-08-18T01:14:09.054Z,219.45
2022-08-18T01:16:57.615Z,164.82
2022-08-18T01:19:45.715Z,151.38
2022-08-18T01:22:40.313Z,138.77
2022-08-18T01:25:27.651Z,147.05
2022-08-18T01:27:59.727Z,124.45
2022-08-18T01:30:28.781Z,184.38
2022-08-18T01:32:57.159Z,292.83
2022-08-18T01:35:26.565Z,245.70
2022-08-18T01:37:55.292Z,357.23
2022-08-18T01:41:11.079Z,128.07
2022-08-18T01:43:12.060Z,202.27
2022-08-18T01:45:40.479Z,125.30
2022-08-18T01:48:08.580Z,166.93
2022-08-18T01:50:37.711Z,145.00
2022-08-18T01:53:05.894Z,163.75
2022-08-18T01:55:40.353Z,115.70
2022-08-18T01:58:07.969Z,95.10
2022-08-18T02:00:36.670Z,111.43
2022-08-18T02:03:08.578Z,163.18
2022-08-18T02:05:41.807Z,109.07
2022-08-18T02:08:09.443Z,223.32
2022-08-18T02:10:37.071Z,143.55
2022-08-18T02:13:04.157Z,106.57
2022-08-18T02:15:32.426Z,186.65
2022-08-18T02:17:59.488Z,121.70
2022-08-18T02:20:26.527Z,112.50
2022-08-18T02:22:53.728Z,98.78
2022-08-18T02:25:20.994Z,153.30
2022-08-18T02:27:47.953Z,119.97
2022-08-18T02:30:18.330Z,115.03
2022-08-18T02:32:45.490Z,100.90
2022-08-18T02:35:12.728Z,209.38
2022-08-18T02:37:42.390Z,189.18
2022-08-18T02:40:15.490Z,134.80
2022-08-18T02:42:44.129Z,113.85
2022-08-18T02:45:12.903Z,101.78
2022-08-18T02:47:40.435Z,107.32
2022-08-18T02:50:10.939Z,143.05
2022-08-18T02:52:38.364Z,120.38
2022-08-18T02:55:08.260Z,101.03
2022-08-18T02:57:48.751Z,117.75
2022-08-18T03:00:18.784Z,150.45
2022-08-18T03:02:48.414Z,116.50
2022-08-18T03:05:16.504Z,103.38
2022-08-18T03:07:45.441Z,96.03
2022-08-18T03:10:32.717Z,133.93
2022-08-18T03:13:01.676Z,94.75
2022-08-18T03:15:28.728Z,111.38
2022-08-18T03:17:56.241Z,113.88
2022-08-18T03:20:30.805Z,106.95
2022-08-18T03:22:58.701Z,145.15
2022-08-18T03:25:25.657Z,180.38
2022-08-18T03:27:52.788Z,134.25
2022-08-18T03:30:19.891Z,104.40
2022-08-18T03:32:47.846Z,284.05
2022-08-18T03:35:14.875Z,345.55
2022-08-18T03:37:41.864Z,93.47
2022-08-18T03:40:11.049Z,232.77
2022-08-18T03:42:38.230Z,83.00
2022-08-18T03:45:13.225Z,88.13
2022-08-18T03:47:45.940Z,87.20
2022-08-18T03:50:13.891Z,101.68
2022-08-18T03:52:41.750Z,116.00
2022-08-18T03:55:09.480Z,99.22
2022-08-18T03:57:39.135Z,116.22
2022-08-18T04:00:12.594Z,113.55
2022-08-18T04:02:40.386Z,83.95
2022-08-18T04:05:08.077Z,131.82
2022-08-18T04:07:35.829Z,104.07
2022-08-18T04:10:04.157Z,146.40
2022-08-18T04:12:31.538Z,133.90
2022-08-18T04:14:58.665Z,109.15
2022-08-18T04:17:25.663Z,73.80
2022-08-18T04:19:54.921Z,79.25
2022-08-18T04:22:22.974Z,102.22
2022-08-18T04:24:50.687Z,114.85
2022-08-18T04:27:19.792Z,113.63
2022-08-18T04:29:47.459Z,178.50
2022-08-18T04:32:15.307Z,104.25
2022-08-18T04:34:42.303Z,80.15
2022-08-18T04:37:09.951Z,80.10
2022-08-18T04:39:37.520Z,77.53
2022-08-18T04:42:05.899Z,84.15
2022-08-18T04:44:33.280Z,102.95
2022-08-18T04:47:02.053Z,104.25
2022-08-18T04:49:30.498Z,106.43
2022-08-18T04:52:30.771Z,119.50
2022-08-18T04:55:06.010Z,113.93
2022-08-18T04:57:34.837Z,138.30
2022-08-18T05:00:04.946Z,86.03
2022-08-18T05:02:33.141Z,77.18
2022-08-18T05:05:01.574Z,70.80
2022-08-18T05:07:31.723Z,86.70
2022-08-18T05:09:59.894Z,332.88
2022-08-18T05:12:27.017Z,380.08
2022-08-18T05:14:57.015Z,169.68
2022-08-18T05:17:30.527Z,173.80
2022-08-18T05:20:01.431Z,108.90
2022-08-18T05:22:31.071Z,80.22
2022-08-18T05:24:58.926Z,113.53
2022-08-18T05:27:25.881Z,100.97
2022-08-18T05:29:52.812Z,79.30
2022-08-18T05:32:46.382Z,135.65
2022-08-18T05:35:14.201Z,352.98
2022-08-18T05:38:16.454Z,134.50
2022-08-18T05:40:46.107Z,300.80
2022-08-18T05:43:15.988Z,456.25
2022-08-18T05:45:44.079Z,486.55
2022-08-18T05:48:11.070Z,100.65
2022-08-18T05:50:38.197Z,297.98
2022-08-18T05:53:14.631Z,111.30
2022-08-18T05:56:21.481Z,97.03
2022-08-18T05:58:55.583Z,90.05
2022-08-18T06:01:30.338Z,74.82
2022-08-18T06:04:14.757Z,183.13
2022-08-18T06:06:47.616Z,98.88
2022-08-18T06:09:33.348Z,85.80
2022-08-18T06:12:25.016Z,77.13
2022-08-18T06:14:57.680Z,98.28
2022-08-18T06:17:52.407Z,143.88
2022-08-18T06:20:30.712Z,142.38
2022-08-18T06:23:20.328Z,147.07
2022-08-18T06:26:17.769Z,99.80
2022-08-18T06:29:38.540Z,138.77
2022-08-18T06:32:20.393Z,93.35
2022-08-18T06:34:56.259Z,124.22
2022-08-18T06:38:03.170Z,104.15
2022-08-18T06:40:30.106Z,109.22
2022-08-18T06:43:01.999Z,104.07
2022-08-18T06:45:39.854Z,113.95
2022-08-18T06:48:32.313Z,97.63
2022-08-18T06:51:03.684Z,82.03
2022-08-18T06:53:56.602Z,92.82
2022-08-18T06:56:28.406Z,101.20
2022-08-18T06:59:14.593Z,100.85
2022-08-18T07:01:42.307Z,85.38
2022-08-18T07:04:09.509Z,107.30
2022-08-18T07:06:38.357Z,98.30
2022-08-18T07:09:24.655Z,105.57
2022-08-18T07:12:08.783Z,102.43
2022-08-18T07:14:53.178Z,88.68
2022-08-18T07:17:43.351Z,100.57
2022-08-18T07:20:25.582Z,94.45
2022-08-18T07:23:00.900Z,86.78
2022-08-18T07:25:39.420Z,78.70
2022-08-18T07:28:40.384Z,79.57
2022-08-18T07:31:35.261Z,85.78
2022-08-18T07:34:12.533Z,91.30
2022-08-18T07:36:49.946Z,82.82
2022-08-18T07:39:42.370Z,78.35
2022-08-18T07:42:54.410Z,84.25
2022-08-18T07:45:34.291Z,85.28
2022-08-18T07:48:37.077Z,82.03
2022-08-18T07:51:43.821Z,73.55
2022-08-18T07:54:50.643Z,81.40
2022-08-18T07:57:27.510Z,74.05
2022-08-18T08:00:35.446Z,77.95
2022-08-18T08:03:39.340Z,71.85
2022-08-18T08:06:10.223Z,62.78
2022-08-18T08:08:55.243Z,65.38
2022-08-18T08:11:34.031Z,62.20
2022-08-18T08:14:41.607Z,64.88
2022-08-18T08:17:30.438Z,61.15
2022-08-18T08:20:19.750Z,60.25
2022-08-18T08:23:17.707Z,64.28
2022-08-18T08:26:16.597Z,63.83
2022-08-18T08:29:11.516Z,61.17
2022-08-18T08:31:59.940Z,61.83
2022-08-18T08:34:32.570Z,52.67
2022-08-18T08:37:05.225Z,56.08
2022-08-18T08:39:59.010Z,53.75
2022-08-18T08:42:57.802Z,56.33
2022-08-18T08:45:39.475Z,50.20
2022-08-18T08:48:28.269Z,51.00
2022-08-18T08:51:07.524Z,46.53
2022-08-18T08:53:54.364Z,46.88
2022-08-18T08:56:30.540Z,52.65
2022-08-18T08:59:26.853Z,54.85
2022-08-18T09:02:06.056Z,52.63
2022-08-18T09:05:07.773Z,52.35
2022-08-18T09:07:45.397Z,50.50
2022-08-18T09:10:53.534Z,49.80
2022-08-18T09:14:05.344Z,42.05
2022-08-18T09:17:34.121Z,43.47
2022-08-18T09:20:49.247Z,43.22
2022-08-18T09:23:35.272Z,41.67
2022-08-18T09:27:14.842Z,40.00
2022-08-18T09:29:59.198Z,44.00
2022-08-18T09:32:26.119Z,35.88
2022-08-18T09:35:08.321Z,39.30
2022-08-18T09:38:24.365Z,40.38
2022-08-18T09:41:17.564Z,30.90
2022-08-18T09:47:00.293Z,31.05
2022-08-18T09:49:28.189Z,25.95
2022-08-18T09:52:24.280Z,31.73
2022-08-18T09:54:54.166Z,31.98
2022-08-18T09:57:31.260Z,35.03
2022-08-18T10:00:12.483Z,34.97
2022-08-18T10:02:40.392Z,31.38
2022-08-18T10:05:19.377Z,31.98
2022-08-18T10:08:27.127Z,32.00
2022-08-18T10:11:02.118Z,28.40
2022-08-18T10:14:05.998Z,28.63
2022-08-18T10:17:39.573Z,29.85
2022-08-18T10:20:53.556Z,32.30
2022-08-18T10:24:29.534Z,27.20
2022-08-18T10:26:55.028Z,28.40
2022-08-18T10:29:32.004Z,28.40
2022-08-18T10:31:59.731Z,25.50
2022-08-18T10:35:06.145Z,26.58
2022-08-18T10:37:49.180Z,29.15
2022-08-18T10:40:21.553Z,24.83
2022-08-18T10:43:46.350Z,26.67
2022-08-18T10:46:25.358Z,28.88
2022-08-18T10:49:06.995Z,26.10
2022-08-18T10:52:00.601Z,24.40
2022-08-18T10:55:06.241Z,23.30
2022-08-18T10:57:53.715Z,23.58
2022-08-18T11:00:23.457Z,18.02
2022-08-18T11:03:42.648Z,16.20
2022-08-18T11:09:00.577Z,15.45
2022-08-18T11:11:52.776Z,20.35
2022-08-18T11:14:50.175Z,19.73
2022-08-18T11:17:36.150Z,17.95
2022-08-18T11:20:11.995Z,19.60
2022-08-18T11:22:38.937Z,17.73
2022-08-18T11:25:28.055Z,17.20
2022-08-18T11:27:56.858Z,19.60
2022-08-18T11:30:37.543Z,18.38
2022-08-18T11:33:07.474Z,18.83
2022-08-18T11:35:51.313Z,18.75
2022-08-18T11:38:23.312Z,18.45
2022-08-18T11:41:13.091Z,19.63
2022-08-18T11:43:43.195Z,20.33
2022-08-18T11:46:29.574Z,17.20
2022-08-18T11:49:17.087Z,14.52
2022-08-18T11:52:19.830Z,13.27
2022-08-18T11:55:14.678Z,17.08
2022-08-18T11:57:59.271Z,16.08
2022-08-18T12:00:42.977Z,13.68
2022-08-18T12:03:23.919Z,14.35
2022-08-18T12:05:56.354Z,17.63
2022-08-18T12:08:54.695Z,16.70
2022-08-18T12:11:27.304Z,21.20
2022-08-18T12:14:30.612Z,13.90
2022-08-18T12:16:57.537Z,16.08
2022-08-18T12:19:34.440Z,15.48
2022-08-18T12:22:13.973Z,17.73
2022-08-18T12:24:41.458Z,12.43
2022-08-18T12:27:20.713Z,14.82
2022-08-18T12:29:50.373Z,15.88
2022-08-18T12:32:41.785Z,14.77
2022-08-18T12:35:11.578Z,20.88
2022-08-18T12:40:31.457Z,16.25
2022-08-18T12:42:58.388Z,13.90
2022-08-18T12:48:13.723Z,14.27
2022-08-18T12:53:57.930Z,14.48
2022-08-18T12:56:27.034Z,13.15
2022-08-18T12:58:55.462Z,12.77
2022-08-18T13:01:25.023Z,18.00
2022-08-18T13:07:00.126Z,15.98
2022-08-18T13:09:35.800Z,15.07
2022-08-18T13:12:21.410Z,13.07
2022-08-18T13:14:49.894Z,11.77
2022-08-18T13:17:32.086Z,18.52
2022-08-18T13:20:21.447Z,15.10
2022-08-18T13:22:48.456Z,15.38
2022-08-18T13:25:32.243Z,12.05
2022-08-18T13:28:02.042Z,12.05
2022-08-18T13:30:31.813Z,14.20
2022-08-18T13:33:05.711Z,12.27
2022-08-18T13:35:53.984Z,12.95
2022-08-18T13:38:25.991Z,13.20
2022-08-18T13:40:59.078Z,20.63
2022-08-18T13:43:39.455Z,10.27
2022-08-18T13:46:09.161Z,12.35
2022-08-18T13:48:38.023Z,11.85
2022-08-18T13:51:08.268Z,11.15
2022-08-18T13:53:50.527Z,9.52
2022-08-18T13:56:19.319Z,13.82
2022-08-18T13:58:53.468Z,15.10
2022-08-18T14:01:44.165Z,12.10
2022-08-18T14:04:12.740Z,14.93
2022-08-18T14:06:46.860Z,11.63
2022-08-18T14:09:19.561Z,13.38
2022-08-18T14:11:54.766Z,13.82
2022-08-18T14:14:21.751Z,16.77
2022-08-18T14:16:48.831Z,14.70
2022-08-18T14:19:36.129Z,12.98
2022-08-18T14:22:25.569Z,13.52
2022-08-18T14:25:12.434Z,14.32
2022-08-18T14:27:39.473Z,14.13
2022-08-18T14:30:10.951Z,15.10
2022-08-18T14:32:48.656Z,10.80
2022-08-18T14:35:33.306Z,11.85
2022-08-18T14:38:05.698Z,9.70
2022-08-18T14:40:33.414Z,12.73
2022-08-18T14:43:02.760Z,14.18
2022-08-18T14:45:35.438Z,13.95
2022-08-18T14:48:11.078Z,11.45
2022-08-18T14:50:40.300Z,11.95
2022-08-18T14:53:20.158Z,13.18
2022-08-18T14:55:52.645Z,11.05
2022-08-18T14:58:26.442Z,11.55
2022-08-18T15:00:58.237Z,8.57
2022-08-18T15:03:31.389Z,11.25
2022-08-18T15:06:04.825Z,9.35
2022-08-18T15:08:35.411Z,11.90
2022-08-18T15:11:06.119Z,14.30
2022-08-18T15:13:42.237Z,11.75
2022-08-18T15:16:13.488Z,11.90
2022-08-18T15:18:42.912Z,10.50
2022-08-18T15:21:38.504Z,14.73
2022-08-18T15:24:26.384Z,14.55
2022-08-18T15:26:57.885Z,12.02
2022-08-18T15:29:27.969Z,13.63
2022-08-18T15:32:05.312Z,13.75
2022-08-18T15:34:47.194Z,12.70
2022-08-18T15:37:24.397Z,10.50
2022-08-18T15:40:21.866Z,9.20
2022-08-18T15:43:01.464Z,12.30
2022-08-18T15:45:37.733Z,11.80
2022-08-18T15:48:12.539Z,16.27
2022-08-18T15:50:39.749Z,15.95
2022-08-18T15:53:11.939Z,8.40
2022-08-18T15:55:40.578Z,7.70
2022-08-18T15:58:11.001Z,9.85
2022-08-18T16:00:43.830Z,9.70
2022-08-18T16:03:16.195Z,12.77
2022-08-18T16:05:54.874Z,8.63
2022-08-18T16:08:25.318Z,12.80
2022-08-18T16:10:53.593Z,12.07
2022-08-18T16:13:21.204Z,8.60
2022-08-18T16:15:50.007Z,8.20
2022-08-18T16:18:21.150Z,7.28
2022-08-18T16:20:56.790Z,9.02
2022-08-18T16:23:24.557Z,8.27
2022-08-18T16:25:51.477Z,9.30
2022-08-18T16:28:18.397Z,11.32
2022-08-18T16:30:47.324Z,10.38
2022-08-18T16:33:14.251Z,10.98
2022-08-18T16:35:42.944Z,10.63
2022-08-18T16:38:12.496Z,9.45
2022-08-18T16:40:41.154Z,9.13
2022-08-18T16:43:08.106Z,9.02
2022-08-18T16:45:37.827Z,9.07
2022-08-18T16:48:08.946Z,11.90
2022-08-18T16:50:37.884Z,9.20
2022-08-18T16:53:05.656Z,12.70
2022-08-18T16:55:32.671Z,8.73
2022-08-18T16:58:18.287Z,14.23
2022-08-18T17:01:03.833Z,10.02
2022-08-18T17:03:49.494Z,10.75
2022-08-18T17:06:18.806Z,13.07
2022-08-18T17:08:46.240Z,11.73
2022-08-18T17:11:18.831Z,10.80
2022-08-18T17:13:48.555Z,10.32
2022-08-18T17:16:18.101Z,7.70
2022-08-18T17:18:47.126Z,15.55
2022-08-18T17:21:18.720Z,8.38
2022-08-18T17:23:46.659Z,10.05
2022-08-18T17:26:52.795Z,12.27
2022-08-18T17:29:43.997Z,8.93
2022-08-18T17:35:28.747Z,13.35
2022-08-18T17:38:08.088Z,8.63
2022-08-18T17:40:46.375Z,12.88
2022-08-18T17:43:20.844Z,15.15
2022-08-18T17:45:56.206Z,10.10
2022-08-18T17:48:33.176Z,12.13
2022-08-18T17:51:30.970Z,9.18
2022-08-18T17:54:01.087Z,10.07
2022-08-18T17:56:57.329Z,9.90
2022-08-18T17:59:51.948Z,11.32
2022-08-18T18:02:29.652Z,10.07
2022-08-18T18:05:04.310Z,9.73
2022-08-18T18:07:55.714Z,11.10
2022-08-18T18:10:37.740Z,12.63
2022-08-18T18:13:12.217Z,10.95
2022-08-18T18:15:48.928Z,10.15
2022-08-18T18:18:24.848Z,9.93
2022-08-18T18:21:21.677Z,8.07
2022-08-18T18:24:14.132Z,13.75
2022-08-18T18:26:47.986Z,9.18
2022-08-18T18:29:38.116Z,10.93
2022-08-18T18:32:43.193Z,10.40
2022-08-18T18:35:34.171Z,11.02
2022-08-18T18:38:24.371Z,9.90
2022-08-18T18:41:04.331Z,13.25
2022-08-18T18:43:38.276Z,13.23
2022-08-18T18:46:18.835Z,9.80
2022-08-18T18:49:02.771Z,10.68
2022-08-18T18:52:03.596Z,12.15
2022-08-18T18:54:49.529Z,12.93
2022-08-18T18:57:48.571Z,11.95
2022-08-18T19:00:30.276Z,12.80
2022-08-18T19:03:15.451Z,15.05
2022-08-18T19:06:15.982Z,13.27
2022-08-18T19:09:31.010Z,12.40
2022-08-18T19:12:21.134Z,14.30
2022-08-18T19:15:14.811Z,14.55
2022-08-18T19:17:52.694Z,12.68
2022-08-18T19:20:34.863Z,16.65
2022-08-18T19:23:15.312Z,15.55
2022-08-18T19:26:00.700Z,13.40
2022-08-18T19:29:13.696Z,11.70
2022-08-18T19:31:45.726Z,11.25
2022-08-18T19:34:19.082Z,14.35
2022-08-18T19:37:07.167Z,14.68
2022-08-18T19:39:49.607Z,12.77
2022-08-18T19:42:39.322Z,15.30
2022-08-18T19:45:19.327Z,16.65
2022-08-18T19:47:57.473Z,15.02
2022-08-18T19:50:43.995Z,19.88
2022-08-18T19:53:32.331Z,22.10
2022-08-18T19:56:24.630Z,22.05
2022-08-18T19:59:41.028Z,17.95
2022-08-18T20:02:41.915Z,19.10
2022-08-18T20:05:32.987Z,21.67
2022-08-18T20:08:25.629Z,20.35
2022-08-18T20:11:41.418Z,18.83
2022-08-18T20:14:18.689Z,27.55
2022-08-18T20:17:16.830Z,23.05
2022-08-18T20:19:52.918Z,16.77
2022-08-18T20:22:24.466Z,20.75
2022-08-18T20:25:08.682Z,22.20
2022-08-18T20:27:42.748Z,19.23
2022-08-18T20:30:32.813Z,27.48
2022-08-18T20:33:24.178Z,25.92
2022-08-18T20:36:12.103Z,20.67
2022-08-18T20:38:53.196Z,21.45
2022-08-18T20:41:29.618Z,23.85
2022-08-18T20:44:29.903Z,23.80
2022-08-18T20:47:28.900Z,22.25
2022-08-18T20:50:21.599Z,31.23
2022-08-18T20:53:00.700Z,23.50
2022-08-18T20:56:31.446Z,25.15
2022-08-18T20:59:14.107Z,22.88
2022-08-18T21:01:41.238Z,23.77
2022-08-18T21:04:09.065Z,25.08
2022-08-18T21:06:42.065Z,23.20
2022-08-18T21:09:13.098Z,27.20
2022-08-18T21:11:45.835Z,26.95
2022-08-18T21:14:15.070Z,26.13
2022-08-18T21:16:45.413Z,29.50
2022-08-18T21:19:28.033Z,30.58
2022-08-18T21:22:00.698Z,31.25
2022-08-18T21:24:37.489Z,30.05
2022-08-18T21:27:30.500Z,27.98
2022-08-18T21:30:15.412Z,27.50
2022-08-18T21:32:48.326Z,29.95
2022-08-18T21:35:22.211Z,30.63
2022-08-18T21:38:08.047Z,36.95
2022-08-18T21:40:34.984Z,34.00
2022-08-18T21:43:02.101Z,38.60
2022-08-18T21:45:29.522Z,43.25
2022-08-18T21:48:05.008Z,38.22
2022-08-18T21:50:34.956Z,40.30
2022-08-18T21:53:20.539Z,40.30
2022-08-18T21:55:51.827Z,41.47
2022-08-18T21:58:42.271Z,43.17
2022-08-18T22:01:28.304Z,41.22
2022-08-18T22:03:59.746Z,39.83
2022-08-18T22:06:40.249Z,37.03
2022-08-18T22:09:28.579Z,40.53
2022-08-18T22:12:54.567Z,42.05
2022-08-18T22:15:26.446Z,45.50
2022-08-18T22:18:00.341Z,43.15
2022-08-18T22:21:00.131Z,46.20
2022-08-18T22:23:54.367Z,50.40
2022-08-18T22:26:32.482Z,49.67
2022-08-18T22:29:16.754Z,48.08
2022-08-18T22:31:47.883Z,44.92
2022-08-18T22:34:17.877Z,44.28
2022-08-18T22:37:04.968Z,45.67
2022-08-18T22:39:44.934Z,51.75
2022-08-18T22:42:15.223Z,49.38
2022-08-18T22:44:43.057Z,49.95
2022-08-18T22:47:10.768Z,53.22
2022-08-18T22:49:38.053Z,52.20
2022-08-18T22:52:13.085Z,48.10
2022-08-18T22:54:40.022Z,43.70
2022-08-18T22:57:10.637Z,53.28
2022-08-18T22:59:37.806Z,54.33
2022-08-18T23:02:11.307Z,53.92
2022-08-18T23:04:38.227Z,57.08
2022-08-18T23:07:05.238Z,67.75
2022-08-18T23:09:33.651Z,70.65
2022-08-18T23:12:10.693Z,73.28
2022-08-18T23:14:38.181Z,73.95
2022-08-18T23:17:07.359Z,71.10
2022-08-18T23:19:34.645Z,69.97
2022-08-18T23:22:04.241Z,77.18
2022-08-18T23:24:31.803Z,76.03
2022-08-18T23:26:59.974Z,76.43
2022-08-18T23:29:27.204Z,76.43
2022-08-18T23:31:54.326Z,66.25
2022-08-18T23:34:24.270Z,72.07
2022-08-18T23:37:01.278Z,56.03
2022-08-18T23:39:30.726Z,51.95
2022-08-18T23:41:58.595Z,45.85
2022-08-18T23:44:27.935Z,48.75
2022-08-18T23:46:59.956Z,47.58
2022-08-18T23:49:30.398Z,41.13
2022-08-18T23:51:59.222Z,41.92
2022-08-18T23:54:31.456Z,43.45
2022-08-18T23:56:58.692Z,46.80
2022-08-18T23:59:28.088Z,47.00
